Time;durP1;ratioP1;P1;durP2;ratioP2;P2;SDS_P1;SDS_P2;PMS_P1;PMS_P2;Temp;Humidity;BMP_temperature;BMP_pressure;BME280_temperature;BME280_humidity;BME280_pressure;Samples;Min_cycle;Max_cycle;Signal;HPM_P1;HPM_P2
2021/09/30 00:00:28;;;;;;;0.70;0.70;;;9.80;99.90;;;;;;5101294;28;20172;-80
2021/09/30 00:02:54;;;;;;;1.03;0.80;;;9.80;99.90;;;;;;5099244;28;20224;-80
2021/09/30 00:05:20;;;;;;;2.63;0.70;;;9.70;99.90;;;;;;5107496;28;20165;-79
2021/09/30 00:07:45;;;;;;;1.17;0.70;;;9.70;99.90;;;;;;5106854;28;20293;-80
2021/09/30 00:10:17;;;;;;;0.70;0.50;;;9.70;99.90;;;;;;5103299;28;20181;-80
2021/09/30 00:13:08;;;;;;;2.13;0.70;;;9.70;99.90;;;;;;5098582;28;20196;-80
2021/09/30 00:34:43;;;;;;;0.93;0.70;;;9.50;99.90;;;;;;5098879;28;20170;-80
2021/09/30 00:48:14;;;;;;;2.37;0.70;;;9.40;99.90;;;;;;5097742;28;20233;-80
2021/09/30 01:32:16;;;;;;;2.97;0.90;;;9.20;99.90;;;;;;5099215;28;20166;-80
2021/09/30 01:46:47;;;;;;;1.43;0.70;;;9.20;99.90;;;;;;5097141;28;20195;-80
2021/09/30 01:52:34;;;;;;;1.37;0.73;;;9.30;99.90;;;;;;5098490;28;20623;-80
2021/09/30 02:39:08;;;;;;;2.63;0.90;;;9.10;99.90;;;;;;5106205;28;20263;-80
2021/09/30 02:58:12;;;;;;;1.60;0.60;;;9.20;99.90;;;;;;5100970;28;20250;-80
2021/09/30 03:00:40;;;;;;;3.30;0.90;;;9.20;99.90;;;;;;5099615;28;20169;-81
2021/09/30 03:03:08;;;;;;;2.10;1.00;;;9.20;99.90;;;;;;5100664;28;20177;-80
2021/09/30 03:05:35;;;;;;;1.73;0.80;;;9.20;99.90;;;;;;5100261;28;20172;-80
2021/09/30 03:08:01;;;;;;;2.43;0.63;;;9.20;99.90;;;;;;5101212;28;20275;-80
2021/09/30 03:10:28;;;;;;;1.40;0.87;;;9.20;99.90;;;;;;5100110;28;20196;-80
2021/09/30 03:12:55;;;;;;;1.67;0.90;;;9.20;99.90;;;;;;5101017;28;20225;-80
2021/09/30 03:18:01;;;;;;;1.80;0.80;;;9.20;99.90;;;;;;5101329;28;20281;-80
2021/09/30 03:23:00;;;;;;;1.40;0.87;;;9.20;99.90;;;;;;5101751;28;20172;-80
2021/09/30 03:25:26;;;;;;;2.67;1.13;;;9.20;99.90;;;;;;5102544;28;20251;-80
2021/09/30 03:27:54;;;;;;;2.97;0.90;;;9.20;99.90;;;;;;5102437;28;20216;-80
2021/09/30 03:30:23;;;;;;;2.87;1.20;;;9.20;99.90;;;;;;5101953;28;20187;-80
2021/09/30 03:32:50;;;;;;;3.13;0.90;;;9.20;99.90;;;;;;5099401;28;20172;-80
2021/09/30 03:35:16;;;;;;;1.73;1.00;;;9.20;99.90;;;;;;5099878;28;20228;-80
2021/09/30 03:37:41;;;;;;;2.87;1.00;;;9.20;99.90;;;;;;5099383;28;20601;-80
2021/09/30 03:40:07;;;;;;;1.07;0.87;;;9.20;99.90;;;;;;5098224;28;20173;-80
2021/09/30 03:42:33;;;;;;;1.30;0.90;;;9.20;99.90;;;;;;5098069;28;20172;-80
2021/09/30 03:44:59;;;;;;;1.73;1.00;;;9.20;99.90;;;;;;5099748;28;20253;-80
2021/09/30 03:47:24;;;;;;;3.80;0.80;;;9.20;99.90;;;;;;5097948;28;20242;-80
2021/09/30 03:49:51;;;;;;;1.53;0.90;;;9.20;99.90;;;;;;5098224;28;20221;-80
2021/09/30 03:52:28;;;;;;;2.57;1.17;;;9.20;99.90;;;;;;5099309;28;20176;-80
2021/09/30 03:59:45;;;;;;;3.33;1.00;;;9.20;99.90;;;;;;5097574;28;20175;-80
2021/09/30 04:02:11;;;;;;;0.80;0.70;;;9.20;99.90;;;;;;5095487;28;20660;-79
2021/09/30 04:04:37;;;;;;;2.23;1.10;;;9.20;99.90;;;;;;5098931;28;20174;-80
2021/09/30 04:07:06;;;;;;;1.07;0.73;;;9.20;99.90;;;;;;5099027;28;20233;-80
2021/09/30 04:09:35;;;;;;;2.20;1.00;;;9.10;99.90;;;;;;5108575;28;20260;-79
2021/09/30 04:12:04;;;;;;;1.43;1.00;;;9.10;99.90;;;;;;5108311;28;20207;-79
2021/09/30 04:14:30;;;;;;;1.60;1.00;;;9.10;99.90;;;;;;5106571;28;20309;-80
2021/09/30 04:16:56;;;;;;;1.13;0.93;;;9.10;99.90;;;;;;5100645;28;20233;-80
2021/09/30 04:19:23;;;;;;;3.93;1.40;;;9.10;99.90;;;;;;5098895;28;20176;-80
2021/09/30 04:21:50;;;;;;;2.53;1.10;;;9.10;99.90;;;;;;5100197;28;20186;-80
2021/09/30 04:24:16;;;;;;;1.17;1.00;;;9.10;99.90;;;;;;5098508;28;20178;-80
2021/09/30 04:26:42;;;;;;;3.70;1.27;;;9.10;99.90;;;;;;5098138;28;20526;-80
2021/09/30 04:29:08;;;;;;;3.30;1.20;;;9.10;99.90;;;;;;5097587;28;20183;-80
2021/09/30 04:31:35;;;;;;;5.83;1.20;;;9.00;99.90;;;;;;5099481;28;20183;-80
2021/09/30 04:34:02;;;;;;;4.40;1.20;;;9.00;99.90;;;;;;5097766;28;20274;-80
2021/09/30 04:36:28;;;;;;;1.67;1.20;;;9.00;99.90;;;;;;5098669;28;20698;-80
2021/09/30 04:38:54;;;;;;;2.23;1.50;;;9.00;99.90;;;;;;5097639;28;20291;-80
2021/09/30 04:41:21;;;;;;;2.30;1.73;;;8.90;99.90;;;;;;5097811;28;20176;-81
2021/09/30 04:43:47;;;;;;;2.70;1.67;;;8.90;99.90;;;;;;5099883;28;20183;-81
2021/09/30 04:46:15;;;;;;;5.20;2.20;;;8.90;99.90;;;;;;5099605;28;20178;-84
2021/09/30 04:48:41;;;;;;;2.67;2.23;;;8.80;99.90;;;;;;5099600;28;20249;-80
2021/09/30 04:51:08;;;;;;;4.73;1.80;;;8.80;99.90;;;;;;5099814;28;20172;-81
2021/09/30 04:53:35;;;;;;;3.40;1.80;;;8.90;99.90;;;;;;5098898;28;20187;-80
2021/09/30 04:56:01;;;;;;;3.03;1.77;;;8.80;99.90;;;;;;5098027;28;20532;-82
2021/09/30 04:58:26;;;;;;;3.03;2.00;;;8.90;99.90;;;;;;5098371;28;20212;-81
2021/09/30 05:00:52;;;;;;;2.77;1.97;;;8.90;99.90;;;;;;5097592;28;20172;-81
2021/09/30 05:03:18;;;;;;;2.40;2.20;;;8.80;99.90;;;;;;5096657;28;20181;-81
2021/09/30 05:05:44;;;;;;;5.80;4.33;;;8.80;99.90;;;;;;5098255;28;20176;-81
2021/09/30 05:08:10;;;;;;;5.90;2.60;;;8.70;99.90;;;;;;5098070;28;20196;-81
2021/09/30 05:10:37;;;;;;;57.47;38.10;;;8.70;99.90;;;;;;5097387;28;20195;-80
2021/09/30 05:13:08;;;;;;;8.67;5.33;;;8.60;99.90;;;;;;5097833;28;20176;-80
2021/09/30 05:15:36;;;;;;;101.37;64.70;;;8.60;99.90;;;;;;5098399;28;20191;-80
2021/09/30 05:18:05;;;;;;;114.73;57.90;;;8.50;99.90;;;;;;5098699;28;20726;-80
2021/09/30 05:20:32;;;;;;;189.47;85.07;;;8.50;99.90;;;;;;5098560;28;20180;-81
2021/09/30 05:22:58;;;;;;;68.40;38.60;;;8.50;99.90;;;;;;5102626;28;20186;-82
2021/09/30 05:25:25;;;;;;;11.20;7.47;;;8.50;99.90;;;;;;5102681;28;20176;-80
2021/09/30 05:27:54;;;;;;;7.13;3.47;;;8.40;99.90;;;;;;5103302;28;20196;-79
2021/09/30 05:30:21;;;;;;;9.60;8.50;;;8.50;99.90;;;;;;5107814;28;20513;-79
2021/09/30 05:32:47;;;;;;;14.80;13.17;;;8.50;99.90;;;;;;5108116;28;20180;-80
2021/09/30 05:35:13;;;;;;;13.07;8.50;;;8.50;99.90;;;;;;5108549;28;20233;-78
2021/09/30 05:37:39;;;;;;;12.53;11.10;;;8.50;99.90;;;;;;5105309;28;20352;-79
2021/09/30 05:40:05;;;;;;;34.20;23.57;;;8.50;99.90;;;;;;5102845;28;20241;-80
2021/09/30 05:42:31;;;;;;;17.60;15.17;;;8.50;99.90;;;;;;5102716;28;20179;-79
2021/09/30 05:45:06;;;;;;;3.67;3.27;;;8.60;99.90;;;;;;5106079;28;20676;-80
2021/09/30 05:47:32;;;;;;;2.90;1.90;;;8.60;99.90;;;;;;5104835;28;20544;-80
2021/09/30 05:49:57;;;;;;;6.13;2.30;;;8.60;99.90;;;;;;5104630;28;20233;-80
2021/09/30 05:52:23;;;;;;;5.83;2.80;;;8.70;99.90;;;;;;5106090;28;20172;-80
2021/09/30 05:54:50;;;;;;;7.97;2.30;;;8.70;99.90;;;;;;5106121;28;20200;-80
2021/09/30 05:57:17;;;;;;;4.80;2.30;;;8.70;99.90;;;;;;5103871;28;20212;-80
2021/09/30 05:59:42;;;;;;;4.27;2.00;;;8.60;99.90;;;;;;5105212;28;20429;-80
2021/09/30 06:10:24;;;;;;;4.10;1.70;;;8.50;99.90;;;;;;5098412;28;20168;-79
2021/09/30 06:12:57;;;;;;;4.03;1.70;;;8.50;99.90;;;;;;5097725;28;20501;-79
2021/09/30 06:15:31;;;;;;;7.33;2.80;;;8.50;99.90;;;;;;5096763;28;20514;-78
2021/09/30 06:17:59;;;;;;;5.37;2.50;;;8.60;99.90;;;;;;5093820;28;20211;-79
2021/09/30 06:20:25;;;;;;;7.37;2.40;;;8.60;99.90;;;;;;5095914;28;20167;-79
2021/09/30 06:22:51;;;;;;;11.47;3.20;;;8.70;99.90;;;;;;5097721;28;20405;-79
2021/09/30 06:25:17;;;;;;;8.03;2.47;;;8.70;99.90;;;;;;5096651;28;20168;-79
2021/09/30 06:27:43;;;;;;;12.23;4.53;;;8.70;99.90;;;;;;5096216;28;20203;-79
2021/09/30 06:30:09;;;;;;;11.97;3.13;;;8.80;99.90;;;;;;5096849;28;20172;-79
2021/09/30 06:32:35;;;;;;;8.23;1.87;;;8.90;99.90;;;;;;5097322;28;20172;-78
2021/09/30 06:35:00;;;;;;;4.53;1.80;;;8.90;99.90;;;;;;5096653;28;20463;-79
2021/09/30 06:37:26;;;;;;;5.57;1.40;;;8.90;99.90;;;;;;5096393;28;20212;-79
2021/09/30 06:39:52;;;;;;;6.63;1.70;;;9.00;99.90;;;;;;5095310;28;20205;-79
2021/09/30 06:42:17;;;;;;;2.20;1.33;;;9.00;99.90;;;;;;5096340;28;20194;-79
2021/09/30 06:44:43;;;;;;;2.37;1.30;;;9.10;99.90;;;;;;5096039;28;20625;-79
2021/09/30 06:47:09;;;;;;;5.57;1.90;;;9.20;99.90;;;;;;5094971;28;20195;-79
2021/09/30 06:49:34;;;;;;;4.90;1.30;;;9.30;99.90;;;;;;5096318;28;20638;-79
2021/09/30 06:52:00;;;;;;;2.47;1.00;;;9.20;99.90;;;;;;5093891;28;20544;-79
2021/09/30 06:54:26;;;;;;;2.17;1.37;;;9.20;99.90;;;;;;5092890;28;20207;-79
2021/09/30 06:56:51;;;;;;;2.70;1.10;;;9.20;99.90;;;;;;5094311;28;20249;-79
2021/09/30 06:59:22;;;;;;;3.07;1.13;;;9.20;99.90;;;;;;5095931;28;20259;-79
2021/09/30 07:01:49;;;;;;;6.17;2.00;;;9.20;99.90;;;;;;5096769;28;20161;-79
2021/09/30 07:04:15;;;;;;;6.87;4.80;;;9.30;99.90;;;;;;5096762;28;20202;-79
2021/09/30 07:06:41;;;;;;;4.10;1.57;;;9.30;99.90;;;;;;5098220;28;20229;-79
2021/09/30 07:09:07;;;;;;;3.33;1.90;;;9.40;99.90;;;;;;5098368;28;20180;-79
2021/09/30 07:11:33;;;;;;;8.37;3.93;;;9.40;99.90;;;;;;5097087;28;20182;-79
2021/09/30 07:13:58;;;;;;;3.97;1.70;;;9.50;99.90;;;;;;5097244;28;20265;-79
2021/09/30 07:16:24;;;;;;;6.53;1.73;;;9.60;99.90;;;;;;5096625;28;20200;-79
2021/09/30 07:18:50;;;;;;;3.80;1.43;;;9.60;99.90;;;;;;5097586;28;20197;-79
2021/09/30 07:21:17;;;;;;;2.37;1.20;;;9.70;99.90;;;;;;5098440;28;20191;-79
2021/09/30 07:23:43;;;;;;;4.40;1.13;;;9.70;99.90;;;;;;5098558;28;20184;-79
2021/09/30 07:26:09;;;;;;;3.63;1.00;;;9.90;99.90;;;;;;5096670;28;20176;-80
2021/09/30 07:28:36;;;;;;;1.73;0.90;;;10.10;99.90;;;;;;5098048;28;20199;-79
2021/09/30 07:31:03;;;;;;;3.57;1.27;;;10.20;99.90;;;;;;5098594;28;20173;-79
2021/09/30 07:33:29;;;;;;;1.17;0.80;;;10.40;99.90;;;;;;5097081;28;20633;-79
2021/09/30 07:35:54;;;;;;;3.10;1.10;;;10.60;99.90;;;;;;5097155;28;20230;-79
2021/09/30 07:38:22;;;;;;;4.23;1.13;;;10.70;99.90;;;;;;5101878;28;20211;-79
2021/09/30 07:40:49;;;;;;;1.77;0.90;;;10.80;99.90;;;;;;5100114;28;20625;-81
2021/09/30 07:43:15;;;;;;;2.07;0.83;;;11.00;99.90;;;;;;5102501;28;20184;-80
2021/09/30 07:45:40;;;;;;;2.60;0.90;;;11.10;99.90;;;;;;5101944;28;20208;-80
2021/09/30 07:48:07;;;;;;;2.27;0.90;;;11.10;99.90;;;;;;5101194;28;20203;-80
2021/09/30 07:50:33;;;;;;;2.47;1.03;;;11.00;99.90;;;;;;5101661;28;20176;-80
2021/09/30 07:52:59;;;;;;;1.83;0.80;;;11.00;99.90;;;;;;5102754;28;20185;-80
2021/09/30 07:55:25;;;;;;;1.47;0.90;;;11.10;99.90;;;;;;5103177;28;20195;-80
2021/09/30 07:57:51;;;;;;;3.90;1.03;;;11.20;99.90;;;;;;5104156;28;20215;-80
2021/09/30 08:00:16;;;;;;;1.60;0.80;;;11.30;99.90;;;;;;5104541;28;20535;-80
2021/09/30 08:02:42;;;;;;;2.97;0.80;;;11.50;99.90;;;;;;5102926;28;20179;-80
2021/09/30 08:05:08;;;;;;;4.60;0.80;;;11.70;99.90;;;;;;5106540;28;20161;-79
2021/09/30 08:07:34;;;;;;;2.73;0.73;;;12.20;99.90;;;;;;5113364;28;20210;-79
2021/09/30 08:10:00;;;;;;;4.73;0.60;;;12.60;99.90;;;;;;5113277;28;20164;-79
2021/09/30 08:12:26;;;;;;;3.03;0.80;;;13.00;99.90;;;;;;5109854;28;20552;-80
2021/09/30 08:14:51;;;;;;;2.23;0.73;;;13.70;99.90;;;;;;5101626;28;20180;-80
2021/09/30 08:17:18;;;;;;;4.00;1.10;;;13.80;99.90;;;;;;5101733;28;20211;-80
2021/09/30 08:19:44;;;;;;;1.73;0.93;;;13.30;99.90;;;;;;5100498;28;20182;-80
2021/09/30 08:22:10;;;;;;;1.30;0.70;;;13.00;99.90;;;;;;5100420;28;20219;-80
2021/09/30 08:24:35;;;;;;;1.73;0.80;;;12.60;99.90;;;;;;5101576;28;20200;-81
2021/09/30 08:27:01;;;;;;;2.60;1.00;;;12.70;99.90;;;;;;5101040;28;20203;-80
2021/09/30 08:29:27;;;;;;;2.20;0.87;;;12.80;99.90;;;;;;5110013;28;20657;-79
2021/09/30 08:31:53;;;;;;;2.30;0.87;;;13.40;99.90;;;;;;5108245;28;20687;-80
2021/09/30 08:34:19;;;;;;;1.90;0.57;;;13.60;99.90;;;;;;5111897;28;20184;-79
2021/09/30 08:36:45;;;;;;;2.40;0.70;;;13.60;99.90;;;;;;5112038;28;20204;-80
2021/09/30 08:39:10;;;;;;;3.23;0.97;;;13.60;99.90;;;;;;5112682;28;20203;-79
2021/09/30 08:41:37;;;;;;;2.63;0.90;;;13.80;99.90;;;;;;5103020;28;20540;-80
2021/09/30 08:44:06;;;;;;;4.80;1.17;;;14.00;99.90;;;;;;5098956;28;20267;-80
2021/09/30 08:46:33;;;;;;;3.60;0.83;;;14.40;99.90;;;;;;5098159;28;20180;-80
2021/09/30 08:49:00;;;;;;;1.20;0.60;;;14.60;99.90;;;;;;5099852;28;20192;-81
2021/09/30 08:51:26;;;;;;;1.90;0.90;;;14.40;99.90;;;;;;5099858;28;20184;-80
2021/09/30 08:53:51;;;;;;;1.70;0.73;;;14.60;99.90;;;;;;5100232;28;20230;-80
2021/09/30 08:56:17;;;;;;;1.93;1.00;;;15.20;99.90;;;;;;5100308;28;20198;-80
2021/09/30 08:58:43;;;;;;;3.00;1.07;;;15.60;99.90;;;;;;5099899;28;20216;-80
2021/09/30 09:01:11;;;;;;;2.67;0.80;;;15.90;99.90;;;;;;5100076;28;20614;-80
2021/09/30 09:03:38;;;;;;;2.80;1.00;;;16.00;99.90;;;;;;5096214;28;20177;-80
2021/09/30 09:06:05;;;;;;;1.87;1.10;;;16.30;99.90;;;;;;5096296;28;20243;-81
2021/09/30 09:08:31;;;;;;;1.97;0.97;;;16.20;99.90;;;;;;5099999;28;20648;-80
2021/09/30 09:10:58;;;;;;;1.83;1.10;;;15.60;99.90;;;;;;5099911;28;20254;-80
2021/09/30 09:13:25;;;;;;;2.83;1.20;;;15.30;99.90;;;;;;5098347;28;20190;-81
2021/09/30 09:15:54;;;;;;;3.03;1.03;;;15.40;99.90;;;;;;5097705;28;20200;-80
2021/09/30 09:18:28;;;;;;;1.63;0.80;;;16.00;99.90;;;;;;5097209;28;20556;-80
2021/09/30 09:21:15;;;;;;;2.73;1.00;;;16.30;99.90;;;;;;5099665;28;20163;-80
2021/09/30 09:23:52;;;;;;;1.60;1.17;;;16.80;99.90;;;;;;5098820;28;20157;-80
2021/09/30 09:26:20;;;;;;;5.47;0.70;;;16.20;99.90;;;;;;5099073;28;20616;-80
2021/09/30 09:29:04;;;;;;;1.47;0.70;;;16.00;99.90;;;;;;5097649;28;20204;-80
2021/09/30 09:31:44;;;;;;;5.00;0.80;;;15.40;99.90;;;;;;5098343;28;20179;-80
2021/09/30 09:34:22;;;;;;;2.93;1.00;;;15.50;99.90;;;;;;5098072;28;20191;-80
2021/09/30 09:36:50;;;;;;;4.80;1.10;;;15.30;99.90;;;;;;5097703;28;20237;-80
2021/09/30 09:39:30;;;;;;;2.47;1.20;;;15.30;99.90;;;;;;5097185;28;20173;-79
2021/09/30 09:42:09;;;;;;;3.80;0.80;;;15.90;99.90;;;;;;5096176;28;20584;-80
2021/09/30 09:44:51;;;;;;;1.23;0.80;;;16.70;99.90;;;;;;5095543;28;20168;-80
2021/09/30 09:47:28;;;;;;;2.17;0.90;;;17.50;99.90;;;;;;5096883;28;20200;-80
2021/09/30 09:50:15;;;;;;;2.77;0.87;;;18.20;99.90;;;;;;5094732;28;20179;-78
2021/09/30 09:53:07;;;;;;;2.83;0.97;;;17.80;99.90;;;;;;5095008;28;20169;-77
2021/09/30 09:55:34;;;;;;;2.00;0.73;;;17.80;99.90;;;;;;5091106;28;20557;-78
2021/09/30 09:58:05;;;;;;;2.07;1.10;;;16.70;99.90;;;;;;5098429;28;20219;-81
2021/09/30 10:00:42;;;;;;;1.57;1.00;;;16.00;99.90;;;;;;5100053;28;20179;-79
2021/09/30 10:03:11;;;;;;;2.27;0.80;;;15.30;99.90;;;;;;5099630;28;20183;-79
2021/09/30 10:05:37;;;;;;;1.50;0.80;;;15.60;99.90;;;;;;5100889;28;20187;-79
2021/09/30 10:08:03;;;;;;;1.90;0.70;;;15.80;99.90;;;;;;5104782;28;20195;-78
2021/09/30 10:10:29;;;;;;;2.97;1.10;;;16.30;99.90;;;;;;5103020;28;20176;-78
2021/09/30 10:12:55;;;;;;;1.60;0.80;;;16.50;99.90;;;;;;5103430;28;20186;-79
2021/09/30 10:15:23;;;;;;;2.70;1.10;;;16.30;99.90;;;;;;5101925;28;20183;-79
2021/09/30 10:17:49;;;;;;;1.50;0.77;;;16.10;99.90;;;;;;5099802;28;20735;-78
2021/09/30 10:20:16;;;;;;;2.73;0.90;;;17.20;99.90;;;;;;5100712;28;20273;-79
2021/09/30 10:22:50;;;;;;;1.73;0.67;;;18.00;99.90;;;;;;5099412;28;20582;-79
2021/09/30 10:25:17;;;;;;;3.10;0.87;;;18.90;99.90;;;;;;5090448;28;20184;-79
2021/09/30 10:27:43;;;;;;;6.00;1.00;;;18.70;99.90;;;;;;5089563;28;20677;-79
2021/09/30 10:30:30;;;;;;;1.63;0.60;;;18.00;99.90;;;;;;5077501;28;20191;-79
2021/09/30 10:32:56;;;;;;;1.60;0.80;;;16.70;99.90;;;;;;5076508;28;20177;-79
2021/09/30 10:35:35;;;;;;;1.13;0.83;;;16.70;99.90;;;;;;5082052;28;20703;-79
2021/09/30 10:38:28;;;;;;;3.80;1.00;;;16.70;99.90;;;;;;5098032;28;20788;-79
2021/09/30 10:41:07;;;;;;;1.57;1.00;;;15.80;99.90;;;;;;5097384;28;20203;-78
2021/09/30 10:43:47;;;;;;;3.73;1.30;;;15.40;99.90;;;;;;5099389;28;20193;-79
2021/09/30 10:46:21;;;;;;;1.17;0.77;;;15.40;99.90;;;;;;5099749;28;20209;-79
2021/09/30 10:48:51;;;;;;;1.20;0.83;;;15.30;99.90;;;;;;5098292;28;20191;-79
2021/09/30 10:51:17;;;;;;;1.53;0.90;;;14.90;99.90;;;;;;5097933;28;20227;-79
2021/09/30 10:53:46;;;;;;;1.63;0.90;;;14.60;99.90;;;;;;5099384;28;20175;-79
2021/09/30 10:56:30;;;;;;;2.67;1.00;;;14.60;99.90;;;;;;5099239;28;20177;-79
2021/09/30 10:59:21;;;;;;;3.77;1.20;;;14.50;99.90;;;;;;5095995;28;20346;-79
2021/09/30 11:01:47;;;;;;;2.43;1.07;;;14.60;99.90;;;;;;5097523;28;20199;-79
2021/09/30 11:04:14;;;;;;;2.60;1.00;;;14.90;99.90;;;;;;5098345;28;20173;-79
2021/09/30 11:06:40;;;;;;;1.67;1.10;;;15.10;99.90;;;;;;5098495;28;20172;-79
2021/09/30 11:09:22;;;;;;;1.43;0.70;;;14.90;99.90;;;;;;5099732;28;20188;-79
2021/09/30 11:12:05;;;;;;;1.80;1.03;;;14.70;99.90;;;;;;5105073;28;20173;-78
2021/09/30 11:14:31;;;;;;;6.37;0.90;;;14.60;99.90;;;;;;5107180;28;20172;-81
2021/09/30 11:16:57;;;;;;;2.10;0.90;;;15.70;99.90;;;;;;5107187;28;20256;-81
2021/09/30 11:19:43;;;;;;;6.33;1.10;;;15.60;99.90;;;;;;5103696;28;20222;-79
2021/09/30 11:22:11;;;;;;;2.40;1.00;;;16.60;99.90;;;;;;5104056;28;20202;-80
2021/09/30 11:24:54;;;;;;;1.93;0.87;;;18.40;99.90;;;;;;5101630;28;20185;-81
2021/09/30 11:27:20;;;;;;;4.70;0.80;;;19.50;99.90;;;;;;5102572;28;20198;-80
2021/09/30 11:29:48;;;;;;;5.40;0.93;;;20.20;99.90;;;;;;5105078;28;20182;-81
2021/09/30 11:32:14;;;;;;;1.73;0.97;;;21.00;99.90;;;;;;5104113;28;20187;-80
2021/09/30 11:34:41;;;;;;;2.20;0.90;;;21.70;98.90;;;;;;5103850;28;20594;-81
2021/09/30 11:37:30;;;;;;;2.40;0.80;;;22.20;94.60;;;;;;5103275;28;20204;-80
2021/09/30 11:39:58;;;;;;;3.83;1.00;;;22.40;94.60;;;;;;5103620;28;20585;-81
2021/09/30 11:42:33;;;;;;;1.23;0.70;;;22.30;95.00;;;;;;5102604;28;20280;-80
2021/09/30 11:45:02;;;;;;;3.63;1.27;;;22.20;92.70;;;;;;5101730;28;20171;-79
2021/09/30 11:47:30;;;;;;;1.30;0.93;;;21.70;93.20;;;;;;5103130;28;20200;-80
2021/09/30 11:49:57;;;;;;;1.70;0.80;;;21.40;92.10;;;;;;5102415;28;20187;-80
2021/09/30 11:52:23;;;;;;;2.53;0.77;;;21.30;92.70;;;;;;5105707;28;20180;-79
2021/09/30 11:54:50;;;;;;;1.80;0.90;;;22.10;94.10;;;;;;5106176;28;20180;-78
2021/09/30 11:57:25;;;;;;;2.53;0.80;;;21.30;90.50;;;;;;5107526;28;20221;-79
2021/09/30 11:59:51;;;;;;;1.17;0.73;;;20.70;93.20;;;;;;5105027;28;20180;-81
2021/09/30 12:02:17;;;;;;;4.10;1.27;;;20.90;91.50;;;;;;5101919;28;20176;-79
2021/09/30 12:04:51;;;;;;;5.80;1.10;;;21.40;93.10;;;;;;5102590;28;20176;-80
2021/09/30 12:07:25;;;;;;;1.67;0.97;;;21.10;92.30;;;;;;5103291;28;20198;-79
2021/09/30 12:09:58;;;;;;;1.57;0.80;;;22.40;94.90;;;;;;5102364;28;20175;-79
2021/09/30 12:12:34;;;;;;;1.10;0.70;;;23.20;86.10;;;;;;5102430;28;20167;-82
2021/09/30 12:15:01;;;;;;;2.40;0.80;;;23.60;84.10;;;;;;5102520;28;20647;-81
2021/09/30 12:17:34;;;;;;;2.40;0.80;;;24.00;80.20;;;;;;5102223;28;20215;-79
2021/09/30 12:20:01;;;;;;;2.87;1.20;;;24.00;86.70;;;;;;5103026;28;20164;-79
2021/09/30 12:22:53;;;;;;;1.47;0.60;;;24.60;83.20;;;;;;5102727;28;20210;-80
2021/09/30 12:25:25;;;;;;;2.80;0.70;;;25.20;79.60;;;;;;5103634;28;20240;-81
2021/09/30 12:27:54;;;;;;;2.73;1.40;;;25.70;75.80;;;;;;5104944;28;20241;-82
2021/09/30 12:30:22;;;;;;;3.60;1.63;;;24.50;73.60;;;;;;5105225;28;20210;-80
2021/09/30 12:32:51;;;;;;;1.60;1.10;;;22.90;76.60;;;;;;5104450;28;20201;-80
2021/09/30 12:35:19;;;;;;;2.00;1.00;;;21.70;75.40;;;;;;5102906;28;20231;-80
2021/09/30 12:37:51;;;;;;;3.70;1.30;;;20.30;77.60;;;;;;5101269;28;20218;-80
2021/09/30 12:40:34;;;;;;;1.50;0.80;;;18.90;82.10;;;;;;5098874;28;20586;-81
2021/09/30 12:43:04;;;;;;;3.23;0.80;;;18.70;86.40;;;;;;5095221;28;20192;-79
2021/09/30 12:45:33;;;;;;;1.67;0.80;;;19.10;85.20;;;;;;5103633;28;20169;-79
2021/09/30 12:48:10;;;;;;;2.57;0.70;;;19.10;82.00;;;;;;5104447;28;20200;-80
2021/09/30 12:50:41;;;;;;;1.13;0.70;;;18.70;81.60;;;;;;5104806;28;20194;-79
2021/09/30 12:53:08;;;;;;;3.33;1.03;;;20.70;84.30;;;;;;5104857;28;20519;-79
2021/09/30 12:55:35;;;;;;;2.77;0.93;;;22.10;83.00;;;;;;5104245;28;20176;-79
2021/09/30 12:58:01;;;;;;;3.57;0.87;;;23.40;76.20;;;;;;5104675;28;20207;-79
2021/09/30 13:00:32;;;;;;;2.10;0.77;;;24.10;72.20;;;;;;5105150;28;20177;-79
2021/09/30 13:03:13;;;;;;;2.43;0.60;;;24.60;69.60;;;;;;5105097;28;20170;-79
2021/09/30 13:05:49;;;;;;;1.77;0.87;;;25.20;73.30;;;;;;5105225;28;20169;-80
2021/09/30 13:08:38;;;;;;;3.07;1.13;;;26.20;67.70;;;;;;5103110;28;20197;-79
2021/09/30 13:11:23;;;;;;;2.27;1.03;;;26.50;64.70;;;;;;5103384;28;20177;-79
2021/09/30 13:14:17;;;;;;;1.63;0.70;;;26.30;66.70;;;;;;5103843;28;20225;-79
2021/09/30 13:16:53;;;;;;;1.90;0.80;;;26.00;67.50;;;;;;5103777;28;20746;-79
2021/09/30 13:19:21;;;;;;;1.47;0.80;;;26.10;61.90;;;;;;5102079;28;20177;-79
2021/09/30 13:22:04;;;;;;;2.13;0.80;;;26.10;61.00;;;;;;5103539;28;20631;-80
2021/09/30 13:24:34;;;;;;;1.10;0.70;;;25.90;59.70;;;;;;5104552;28;20622;-80
2021/09/30 13:27:00;;;;;;;1.40;0.90;;;26.60;63.70;;;;;;5103140;28;20173;-81
2021/09/30 13:29:25;;;;;;;6.17;1.10;;;26.90;60.00;;;;;;5104171;28;20586;-80
2021/09/30 13:31:52;;;;;;;3.10;0.83;;;26.80;57.40;;;;;;5104143;28;20235;-82
2021/09/30 13:34:19;;;;;;;1.10;0.73;;;26.00;58.60;;;;;;5105290;28;20232;-81
2021/09/30 13:36:44;;;;;;;3.87;0.80;;;26.30;63.20;;;;;;5105492;28;20176;-81
2021/09/30 13:39:10;;;;;;;4.13;0.80;;;25.80;59.40;;;;;;5105016;28;20172;-81
2021/09/30 13:41:36;;;;;;;1.33;0.70;;;26.00;61.50;;;;;;5106485;28;20350;-81
2021/09/30 13:44:02;;;;;;;0.90;0.70;;;26.40;59.40;;;;;;5106158;28;20169;-81
2021/09/30 13:46:28;;;;;;;1.10;0.60;;;27.00;58.90;;;;;;5105271;28;20179;-81
2021/09/30 13:48:54;;;;;;;1.67;0.80;;;26.60;58.70;;;;;;5105134;28;20291;-81
2021/09/30 13:51:19;;;;;;;1.70;0.70;;;26.50;57.10;;;;;;5106906;28;20181;-81
2021/09/30 13:53:45;;;;;;;1.13;0.70;;;26.50;58.40;;;;;;5106941;28;20257;-80
2021/09/30 13:56:11;;;;;;;1.37;0.73;;;26.00;55.80;;;;;;5113694;28;20172;-79
2021/09/30 13:58:36;;;;;;;1.37;0.70;;;25.70;55.80;;;;;;5115079;28;20222;-79
2021/09/30 14:01:02;;;;;;;2.00;0.70;;;25.10;56.60;;;;;;5112068;28;20176;-80
2021/09/30 14:03:28;;;;;;;0.87;0.50;;;24.60;60.50;;;;;;5107447;28;20176;-82
2021/09/30 14:05:54;;;;;;;2.70;0.80;;;24.70;57.00;;;;;;5108324;28;20183;-80
2021/09/30 14:08:20;;;;;;;3.03;0.80;;;25.00;58.60;;;;;;5114170;28;20200;-80
2021/09/30 14:10:47;;;;;;;1.43;0.90;;;24.80;57.30;;;;;;5106733;28;20255;-80
2021/09/30 14:13:16;;;;;;;5.47;0.90;;;23.80;58.90;;;;;;5108730;28;20176;-80
2021/09/30 14:15:43;;;;;;;5.00;0.80;;;24.20;59.90;;;;;;5114700;28;20196;-80
2021/09/30 14:18:09;;;;;;;2.23;0.93;;;24.60;57.70;;;;;;5116039;28;20233;-80
2021/09/30 14:20:35;;;;;;;0.90;0.50;;;23.10;58.00;;;;;;5115371;28;20234;-80
2021/09/30 14:23:00;;;;;;;2.73;1.20;;;21.60;61.00;;;;;;5114190;28;20188;-79
2021/09/30 14:25:26;;;;;;;1.80;0.63;;;20.60;62.00;;;;;;5107227;28;20198;-80
2021/09/30 14:27:52;;;;;;;1.27;0.93;;;19.30;68.60;;;;;;5105832;28;20189;-80
2021/09/30 14:30:18;;;;;;;2.07;1.00;;;18.50;70.00;;;;;;5104879;28;20190;-80
2021/09/30 14:32:44;;;;;;;1.67;1.00;;;17.70;74.50;;;;;;5105344;28;20172;-79
2021/09/30 14:35:10;;;;;;;3.53;1.00;;;17.40;75.50;;;;;;5111407;28;20174;-80
2021/09/30 14:37:36;;;;;;;1.63;0.90;;;17.30;77.30;;;;;;5107629;28;20218;-80
2021/09/30 14:40:02;;;;;;;1.80;0.80;;;16.90;78.70;;;;;;5106680;28;20507;-80
2021/09/30 14:42:28;;;;;;;2.03;1.10;;;16.50;80.50;;;;;;5106436;28;20525;-80
2021/09/30 14:44:56;;;;;;;2.47;1.00;;;16.40;84.30;;;;;;5105901;28;20165;-80
2021/09/30 14:47:22;;;;;;;2.33;0.90;;;16.30;81.90;;;;;;5109772;28;20222;-80
2021/09/30 14:49:47;;;;;;;3.53;0.80;;;16.20;81.60;;;;;;5109755;28;20182;-80
2021/09/30 14:52:13;;;;;;;2.67;1.07;;;16.00;83.10;;;;;;5110889;28;20181;-80
2021/09/30 14:54:39;;;;;;;2.03;0.73;;;15.80;84.10;;;;;;5110005;28;20255;-80
2021/09/30 14:57:06;;;;;;;5.20;1.07;;;15.70;84.80;;;;;;5109017;28;20682;-80
2021/09/30 14:59:31;;;;;;;4.50;1.17;;;15.60;84.70;;;;;;5110916;28;20172;-80
2021/09/30 15:01:57;;;;;;;3.70;1.33;;;15.40;86.70;;;;;;5110733;28;20193;-80
2021/09/30 15:04:23;;;;;;;8.60;1.00;;;15.30;86.40;;;;;;5107515;28;20192;-81
2021/09/30 15:06:49;;;;;;;10.27;1.20;;;15.20;86.90;;;;;;5110478;28;20482;-81
2021/09/30 15:09:16;;;;;;;2.87;0.77;;;15.10;87.00;;;;;;5103247;28;20177;-81
2021/09/30 15:11:42;;;;;;;2.53;0.70;;;15.00;86.40;;;;;;5101466;28;20177;-80
2021/09/30 15:14:09;;;;;;;3.37;0.70;;;15.00;88.00;;;;;;5100583;28;20177;-80
2021/09/30 15:16:39;;;;;;;2.77;0.97;;;14.90;89.00;;;;;;5102265;28;20185;-80
2021/09/30 15:19:07;;;;;;;12.03;1.10;;;14.70;88.90;;;;;;5101195;28;20197;-80
2021/09/30 15:21:33;;;;;;;2.20;1.00;;;14.70;91.00;;;;;;5100469;28;20665;-81
2021/09/30 15:24:04;;;;;;;2.07;0.87;;;14.70;90.50;;;;;;5100502;28;20184;-80
2021/09/30 15:26:30;;;;;;;4.00;0.80;;;14.70;91.10;;;;;;5100521;28;20165;-80
2021/09/30 15:28:57;;;;;;;0.97;0.57;;;14.70;90.70;;;;;;5100089;28;20234;-80
2021/09/30 15:31:24;;;;;;;2.00;0.97;;;14.60;91.40;;;;;;5099128;28;20244;-80
2021/09/30 15:33:51;;;;;;;2.70;0.83;;;14.60;91.80;;;;;;5098991;28;20181;-80
2021/09/30 15:36:23;;;;;;;2.43;0.73;;;14.50;91.40;;;;;;5097839;28;20191;-80
2021/09/30 15:38:49;;;;;;;2.60;0.70;;;14.40;92.30;;;;;;5097485;28;20212;-80
2021/09/30 15:41:15;;;;;;;4.10;1.23;;;14.30;92.80;;;;;;5098104;28;20582;-79
2021/09/30 15:43:41;;;;;;;2.77;1.07;;;14.30;92.60;;;;;;5096419;28;20211;-80